sensor_id;sensor_type;location;lat;lon;timestamp;P1;durP1;ratioP1;P2;durP2;ratioP2
14125;SDS011;7141;49.484;11.242;2022-11-28T00:01:08;21.40;;;12.53;;
14125;SDS011;7141;49.484;11.242;2022-11-28T00:03:34;25.07;;;13.10;;
14125;SDS011;7141;49.484;11.242;2022-11-28T00:06:04;21.17;;;12.47;;
14125;SDS011;7141;49.484;11.242;2022-11-28T00:08:30;23.10;;;12.27;;
14125;SDS011;7141;49.484;11.242;2022-11-28T00:10:56;22.23;;;12.13;;
14125;SDS011;7141;49.484;11.242;2022-11-28T00:13:23;18.97;;;12.03;;
14125;SDS011;7141;49.484;11.242;2022-11-28T00:15:58;20.97;;;12.37;;
14125;SDS011;7141;49.484;11.242;2022-11-28T00:18:25;23.53;;;12.77;;
14125;SDS011;7141;49.484;11.242;2022-11-28T00:20:51;22.40;;;12.57;;
14125;SDS011;7141;49.484;11.242;2022-11-28T00:23:18;21.23;;;11.60;;
14125;SDS011;7141;49.484;11.242;2022-11-28T00:25:44;19.87;;;11.30;;
14125;SDS011;7141;49.484;11.242;2022-11-28T00:28:10;23.50;;;12.33;;
14125;SDS011;7141;49.484;11.242;2022-11-28T00:30:36;26.20;;;13.23;;
14125;SDS011;7141;49.484;11.242;2022-11-28T00:33:02;22.77;;;11.50;;
14125;SDS011;7141;49.484;11.242;2022-11-28T00:35:28;24.70;;;12.57;;
14125;SDS011;7141;49.484;11.242;2022-11-28T00:37:54;22.97;;;13.70;;
14125;SDS011;7141;49.484;11.242;2022-11-28T00:40:20;23.30;;;12.70;;
14125;SDS011;7141;49.484;11.242;2022-11-28T00:42:46;25.33;;;12.87;;
14125;SDS011;7141;49.484;11.242;2022-11-28T00:45:12;25.53;;;13.57;;
14125;SDS011;7141;49.484;11.242;2022-11-28T00:47:38;20.43;;;12.30;;
14125;SDS011;7141;49.484;11.242;2022-11-28T00:50:04;27.23;;;14.00;;
14125;SDS011;7141;49.484;11.242;2022-11-28T00:52:31;24.90;;;12.97;;
14125;SDS011;7141;49.484;11.242;2022-11-28T00:54:57;23.43;;;12.40;;
14125;SDS011;7141;49.484;11.242;2022-11-28T00:57:23;23.77;;;13.20;;
14125;SDS011;7141;49.484;11.242;2022-11-28T00:59:49;24.67;;;12.40;;
14125;SDS011;7141;49.484;11.242;2022-11-28T01:02:15;20.63;;;11.77;;
14125;SDS011;7141;49.484;11.242;2022-11-28T01:04:41;25.20;;;13.07;;
14125;SDS011;7141;49.484;11.242;2022-11-28T01:07:07;22.37;;;12.93;;
14125;SDS011;7141;49.484;11.242;2022-11-28T01:09:33;22.87;;;12.20;;
14125;SDS011;7141;49.484;11.242;2022-11-28T01:11:59;26.23;;;13.47;;
14125;SDS011;7141;49.484;11.242;2022-11-28T01:14:26;19.63;;;11.60;;
14125;SDS011;7141;49.484;11.242;2022-11-28T01:16:54;25.97;;;12.57;;
14125;SDS011;7141;49.484;11.242;2022-11-28T01:19:20;20.73;;;11.73;;
14125;SDS011;7141;49.484;11.242;2022-11-28T01:21:46;23.27;;;11.50;;
14125;SDS011;7141;49.484;11.242;2022-11-28T01:24:12;20.90;;;11.63;;
14125;SDS011;7141;49.484;11.242;2022-11-28T01:26:38;19.50;;;11.37;;
14125;SDS011;7141;49.484;11.242;2022-11-28T01:29:05;21.03;;;12.07;;
14125;SDS011;7141;49.484;11.242;2022-11-28T01:31:31;23.80;;;12.17;;
14125;SDS011;7141;49.484;11.242;2022-11-28T01:33:57;19.73;;;11.70;;
14125;SDS011;7141;49.484;11.242;2022-11-28T01:36:23;22.90;;;11.50;;
14125;SDS011;7141;49.484;11.242;2022-11-28T01:38:49;21.67;;;11.00;;
14125;SDS011;7141;49.484;11.242;2022-11-28T01:41:16;20.23;;;12.07;;
14125;SDS011;7141;49.484;11.242;2022-11-28T01:43:58;21.30;;;11.13;;
14125;SDS011;7141;49.484;11.242;2022-11-28T01:46:25;19.33;;;11.77;;
14125;SDS011;7141;49.484;11.242;2022-11-28T01:48:51;21.07;;;11.47;;
14125;SDS011;7141;49.484;11.242;2022-11-28T01:51:18;19.83;;;11.83;;
14125;SDS011;7141;49.484;11.242;2022-11-28T01:53:44;20.47;;;11.73;;
14125;SDS011;7141;49.484;11.242;2022-11-28T01:56:13;23.13;;;12.23;;
14125;SDS011;7141;49.484;11.242;2022-11-28T01:58:40;20.13;;;11.23;;
14125;SDS011;7141;49.484;11.242;2022-11-28T02:01:07;22.23;;;12.60;;
14125;SDS011;7141;49.484;11.242;2022-11-28T02:03:41;20.87;;;11.77;;
14125;SDS011;7141;49.484;11.242;2022-11-28T02:06:08;25.60;;;12.57;;
14125;SDS011;7141;49.484;11.242;2022-11-28T02:08:35;23.63;;;12.23;;
14125;SDS011;7141;49.484;11.242;2022-11-28T02:16:18;22.27;;;11.83;;
14125;SDS011;7141;49.484;11.242;2022-11-28T02:21:41;21.40;;;11.53;;
14125;SDS011;7141;49.484;11.242;2022-11-28T02:32:12;19.93;;;11.33;;
14125;SDS011;7141;49.484;11.242;2022-11-28T02:34:52;19.73;;;11.17;;
14125;SDS011;7141;49.484;11.242;2022-11-28T02:43:22;23.37;;;12.20;;
14125;SDS011;7141;49.484;11.242;2022-11-28T02:48:26;20.20;;;10.77;;
14125;SDS011;7141;49.484;11.242;2022-11-28T02:50:59;20.20;;;11.30;;
14125;SDS011;7141;49.484;11.242;2022-11-28T02:53:26;18.97;;;10.73;;
14125;SDS011;7141;49.484;11.242;2022-11-28T02:55:53;16.57;;;10.53;;
14125;SDS011;7141;49.484;11.242;2022-11-28T02:58:21;18.57;;;11.20;;
14125;SDS011;7141;49.484;11.242;2022-11-28T03:00:47;21.27;;;11.53;;
14125;SDS011;7141;49.484;11.242;2022-11-28T03:08:19;15.90;;;10.43;;
14125;SDS011;7141;49.484;11.242;2022-11-28T03:10:51;22.13;;;11.00;;
14125;SDS011;7141;49.484;11.242;2022-11-28T03:18:40;18.50;;;10.77;;
14125;SDS011;7141;49.484;11.242;2022-11-28T03:23:36;21.23;;;11.80;;
14125;SDS011;7141;49.484;11.242;2022-11-28T03:26:10;21.87;;;10.83;;
14125;SDS011;7141;49.484;11.242;2022-11-28T03:28:39;18.70;;;10.63;;
14125;SDS011;7141;49.484;11.242;2022-11-28T03:31:09;18.37;;;11.30;;
14125;SDS011;7141;49.484;11.242;2022-11-28T03:33:37;17.10;;;9.93;;
14125;SDS011;7141;49.484;11.242;2022-11-28T03:36:05;20.90;;;10.47;;
14125;SDS011;7141;49.484;11.242;2022-11-28T03:38:37;20.63;;;11.57;;
14125;SDS011;7141;49.484;11.242;2022-11-28T03:41:15;21.73;;;10.80;;
14125;SDS011;7141;49.484;11.242;2022-11-28T03:43:45;18.37;;;10.43;;
14125;SDS011;7141;49.484;11.242;2022-11-28T03:46:13;18.07;;;10.23;;
14125;SDS011;7141;49.484;11.242;2022-11-28T03:48:50;17.63;;;10.07;;
14125;SDS011;7141;49.484;11.242;2022-11-28T03:56:10;16.50;;;10.17;;
14125;SDS011;7141;49.484;11.242;2022-11-28T03:58:41;16.17;;;9.80;;
14125;SDS011;7141;49.484;11.242;2022-11-28T04:01:22;19.77;;;10.30;;
14125;SDS011;7141;49.484;11.242;2022-11-28T04:03:52;18.93;;;10.90;;
14125;SDS011;7141;49.484;11.242;2022-11-28T04:06:21;17.27;;;10.03;;
14125;SDS011;7141;49.484;11.242;2022-11-28T04:08:49;18.93;;;9.63;;
14125;SDS011;7141;49.484;11.242;2022-11-28T04:11:18;17.17;;;10.03;;
14125;SDS011;7141;49.484;11.242;2022-11-28T04:13:52;15.57;;;10.13;;
14125;SDS011;7141;49.484;11.242;2022-11-28T04:21:28;15.50;;;9.07;;
14125;SDS011;7141;49.484;11.242;2022-11-28T04:23:57;18.57;;;9.83;;
14125;SDS011;7141;49.484;11.242;2022-11-28T04:26:29;17.37;;;10.30;;
14125;SDS011;7141;49.484;11.242;2022-11-28T04:28:57;18.57;;;10.40;;
14125;SDS011;7141;49.484;11.242;2022-11-28T04:31:24;18.50;;;10.00;;
14125;SDS011;7141;49.484;11.242;2022-11-28T04:33:52;18.80;;;9.77;;
14125;SDS011;7141;49.484;11.242;2022-11-28T04:36:19;14.30;;;9.07;;
14125;SDS011;7141;49.484;11.242;2022-11-28T04:38:47;19.67;;;9.73;;
14125;SDS011;7141;49.484;11.242;2022-11-28T04:41:41;15.77;;;9.53;;
14125;SDS011;7141;49.484;11.242;2022-11-28T04:44:52;15.10;;;8.67;;
14125;SDS011;7141;49.484;11.242;2022-11-28T04:46:53;16.10;;;9.60;;
14125;SDS011;7141;49.484;11.242;2022-11-28T04:49:20;17.03;;;9.13;;
14125;SDS011;7141;49.484;11.242;2022-11-28T04:51:52;19.23;;;9.77;;
14125;SDS011;7141;49.484;11.242;2022-11-28T04:56:53;15.27;;;10.00;;
14125;SDS011;7141;49.484;11.242;2022-11-28T04:59:20;16.17;;;10.23;;
14125;SDS011;7141;49.484;11.242;2022-11-28T05:01:47;21.13;;;9.93;;
14125;SDS011;7141;49.484;11.242;2022-11-28T05:04:13;15.13;;;9.73;;
14125;SDS011;7141;49.484;11.242;2022-11-28T05:06:41;18.87;;;10.57;;
14125;SDS011;7141;49.484;11.242;2022-11-28T05:09:08;15.30;;;9.97;;
14125;SDS011;7141;49.484;11.242;2022-11-28T05:11:34;19.33;;;9.63;;
14125;SDS011;7141;49.484;11.242;2022-11-28T05:14:00;22.70;;;9.13;;
14125;SDS011;7141;49.484;11.242;2022-11-28T05:16:26;16.00;;;8.63;;
14125;SDS011;7141;49.484;11.242;2022-11-28T05:18:52;16.50;;;9.63;;
14125;SDS011;7141;49.484;11.242;2022-11-28T05:21:18;11.43;;;8.13;;
14125;SDS011;7141;49.484;11.242;2022-11-28T05:23:44;15.97;;;9.63;;
14125;SDS011;7141;49.484;11.242;2022-11-28T05:26:14;14.63;;;9.37;;
14125;SDS011;7141;49.484;11.242;2022-11-28T05:28:45;17.43;;;9.93;;
14125;SDS011;7141;49.484;11.242;2022-11-28T05:31:11;25.13;;;10.13;;
14125;SDS011;7141;49.484;11.242;2022-11-28T05:33:37;15.70;;;10.17;;
14125;SDS011;7141;49.484;11.242;2022-11-28T05:36:08;19.07;;;9.67;;
14125;SDS011;7141;49.484;11.242;2022-11-28T05:38:34;19.37;;;10.40;;
14125;SDS011;7141;49.484;11.242;2022-11-28T05:41:00;18.20;;;11.17;;
14125;SDS011;7141;49.484;11.242;2022-11-28T05:43:27;18.57;;;11.03;;
14125;SDS011;7141;49.484;11.242;2022-11-28T05:45:53;19.80;;;10.93;;
14125;SDS011;7141;49.484;11.242;2022-11-28T05:48:20;19.10;;;10.50;;
14125;SDS011;7141;49.484;11.242;2022-11-28T05:50:46;21.37;;;11.03;;
14125;SDS011;7141;49.484;11.242;2022-11-28T05:53:14;20.43;;;10.93;;
14125;SDS011;7141;49.484;11.242;2022-11-28T05:55:40;18.73;;;10.73;;
14125;SDS011;7141;49.484;11.242;2022-11-28T05:58:06;22.30;;;12.03;;
14125;SDS011;7141;49.484;11.242;2022-11-28T06:00:32;20.83;;;11.47;;
14125;SDS011;7141;49.484;11.242;2022-11-28T06:02:58;20.83;;;12.37;;
14125;SDS011;7141;49.484;11.242;2022-11-28T06:05:24;23.83;;;13.03;;
14125;SDS011;7141;49.484;11.242;2022-11-28T06:07:50;19.37;;;11.77;;
14125;SDS011;7141;49.484;11.242;2022-11-28T06:10:17;19.13;;;11.07;;
14125;SDS011;7141;49.484;11.242;2022-11-28T06:12:43;20.20;;;10.93;;
14125;SDS011;7141;49.484;11.242;2022-11-28T06:15:09;19.63;;;11.23;;
14125;SDS011;7141;49.484;11.242;2022-11-28T06:17:35;17.60;;;11.07;;
14125;SDS011;7141;49.484;11.242;2022-11-28T06:20:01;19.00;;;10.77;;
14125;SDS011;7141;49.484;11.242;2022-11-28T06:22:28;22.03;;;11.33;;
14125;SDS011;7141;49.484;11.242;2022-11-28T06:24:54;20.30;;;11.57;;
14125;SDS011;7141;49.484;11.242;2022-11-28T06:27:20;20.17;;;12.50;;
14125;SDS011;7141;49.484;11.242;2022-11-28T06:29:46;21.83;;;12.80;;
14125;SDS011;7141;49.484;11.242;2022-11-28T06:32:12;18.07;;;11.80;;
14125;SDS011;7141;49.484;11.242;2022-11-28T06:34:38;18.53;;;10.60;;
14125;SDS011;7141;49.484;11.242;2022-11-28T06:37:04;21.73;;;10.90;;
14125;SDS011;7141;49.484;11.242;2022-11-28T06:39:30;18.97;;;11.10;;
14125;SDS011;7141;49.484;11.242;2022-11-28T06:41:56;19.80;;;10.60;;
14125;SDS011;7141;49.484;11.242;2022-11-28T06:44:22;20.03;;;11.83;;
14125;SDS011;7141;49.484;11.242;2022-11-28T06:46:48;20.07;;;12.17;;
14125;SDS011;7141;49.484;11.242;2022-11-28T06:49:14;20.47;;;11.77;;
14125;SDS011;7141;49.484;11.242;2022-11-28T06:51:40;18.53;;;11.10;;
14125;SDS011;7141;49.484;11.242;2022-11-28T06:54:07;19.13;;;11.83;;
14125;SDS011;7141;49.484;11.242;2022-11-28T06:56:33;18.90;;;10.33;;
14125;SDS011;7141;49.484;11.242;2022-11-28T06:58:59;22.03;;;11.93;;
14125;SDS011;7141;49.484;11.242;2022-11-28T07:01:26;20.63;;;11.33;;
14125;SDS011;7141;49.484;11.242;2022-11-28T07:03:52;22.60;;;11.43;;
14125;SDS011;7141;49.484;11.242;2022-11-28T07:06:19;22.47;;;11.47;;
14125;SDS011;7141;49.484;11.242;2022-11-28T07:08:46;20.43;;;11.47;;
14125;SDS011;7141;49.484;11.242;2022-11-28T07:11:19;17.30;;;10.67;;
14125;SDS011;7141;49.484;11.242;2022-11-28T07:13:45;18.40;;;11.07;;
14125;SDS011;7141;49.484;11.242;2022-11-28T07:16:12;17.87;;;10.53;;
14125;SDS011;7141;49.484;11.242;2022-11-28T07:18:39;20.33;;;10.97;;
14125;SDS011;7141;49.484;11.242;2022-11-28T07:21:05;20.07;;;10.53;;
14125;SDS011;7141;49.484;11.242;2022-11-28T07:23:31;18.30;;;10.90;;
14125;SDS011;7141;49.484;11.242;2022-11-28T07:25:58;19.10;;;11.50;;
14125;SDS011;7141;49.484;11.242;2022-11-28T07:28:24;21.93;;;11.70;;
14125;SDS011;7141;49.484;11.242;2022-11-28T07:31:07;18.43;;;10.17;;
14125;SDS011;7141;49.484;11.242;2022-11-28T07:33:36;16.60;;;10.67;;
14125;SDS011;7141;49.484;11.242;2022-11-28T07:36:03;20.83;;;11.20;;
14125;SDS011;7141;49.484;11.242;2022-11-28T07:38:30;20.97;;;11.63;;
14125;SDS011;7141;49.484;11.242;2022-11-28T07:41:06;17.90;;;10.17;;
14125;SDS011;7141;49.484;11.242;2022-11-28T07:43:32;16.17;;;10.93;;
14125;SDS011;7141;49.484;11.242;2022-11-28T07:46:01;15.53;;;10.13;;
14125;SDS011;7141;49.484;11.242;2022-11-28T07:48:28;17.80;;;10.60;;
14125;SDS011;7141;49.484;11.242;2022-11-28T07:50:54;19.60;;;10.77;;
14125;SDS011;7141;49.484;11.242;2022-11-28T07:53:20;16.70;;;10.47;;
14125;SDS011;7141;49.484;11.242;2022-11-28T07:55:46;15.67;;;8.57;;
14125;SDS011;7141;49.484;11.242;2022-11-28T07:58:12;16.77;;;9.93;;
14125;SDS011;7141;49.484;11.242;2022-11-28T08:00:38;16.57;;;9.93;;
14125;SDS011;7141;49.484;11.242;2022-11-28T08:03:04;16.50;;;10.10;;
14125;SDS011;7141;49.484;11.242;2022-11-28T08:05:30;16.77;;;9.97;;
14125;SDS011;7141;49.484;11.242;2022-11-28T08:07:56;15.33;;;8.93;;
14125;SDS011;7141;49.484;11.242;2022-11-28T08:10:22;16.20;;;9.60;;
14125;SDS011;7141;49.484;11.242;2022-11-28T08:12:48;16.33;;;9.50;;
14125;SDS011;7141;49.484;11.242;2022-11-28T08:15:14;16.33;;;9.53;;
14125;SDS011;7141;49.484;11.242;2022-11-28T08:17:40;18.93;;;10.27;;
14125;SDS011;7141;49.484;11.242;2022-11-28T08:20:06;14.87;;;8.83;;
14125;SDS011;7141;49.484;11.242;2022-11-28T08:22:33;15.33;;;8.93;;
14125;SDS011;7141;49.484;11.242;2022-11-28T08:24:59;14.33;;;8.43;;
14125;SDS011;7141;49.484;11.242;2022-11-28T08:27:25;15.63;;;9.23;;
14125;SDS011;7141;49.484;11.242;2022-11-28T08:29:51;15.70;;;9.10;;
14125;SDS011;7141;49.484;11.242;2022-11-28T08:32:17;16.23;;;9.47;;
14125;SDS011;7141;49.484;11.242;2022-11-28T08:34:43;15.00;;;9.20;;
14125;SDS011;7141;49.484;11.242;2022-11-28T08:37:08;13.83;;;9.37;;
14125;SDS011;7141;49.484;11.242;2022-11-28T08:39:34;16.80;;;9.80;;
14125;SDS011;7141;49.484;11.242;2022-11-28T08:42:00;18.30;;;9.10;;
14125;SDS011;7141;49.484;11.242;2022-11-28T08:44:26;15.77;;;8.73;;
14125;SDS011;7141;49.484;11.242;2022-11-28T08:46:53;14.63;;;9.70;;
14125;SDS011;7141;49.484;11.242;2022-11-28T08:49:19;14.93;;;9.90;;
14125;SDS011;7141;49.484;11.242;2022-11-28T08:51:45;13.80;;;9.63;;
14125;SDS011;7141;49.484;11.242;2022-11-28T08:54:11;16.67;;;9.20;;
14125;SDS011;7141;49.484;11.242;2022-11-28T08:56:37;12.37;;;8.20;;
14125;SDS011;7141;49.484;11.242;2022-11-28T08:59:03;13.30;;;9.00;;
14125;SDS011;7141;49.484;11.242;2022-11-28T09:01:30;14.27;;;9.87;;
14125;SDS011;7141;49.484;11.242;2022-11-28T09:03:56;18.57;;;9.23;;
14125;SDS011;7141;49.484;11.242;2022-11-28T09:06:22;14.53;;;8.53;;
14125;SDS011;7141;49.484;11.242;2022-11-28T09:08:49;12.27;;;8.30;;
14125;SDS011;7141;49.484;11.242;2022-11-28T09:11:16;11.53;;;8.13;;
14125;SDS011;7141;49.484;11.242;2022-11-28T09:13:42;19.97;;;9.93;;
14125;SDS011;7141;49.484;11.242;2022-11-28T09:16:08;11.23;;;7.80;;
14125;SDS011;7141;49.484;11.242;2022-11-28T09:18:34;13.60;;;8.03;;
14125;SDS011;7141;49.484;11.242;2022-11-28T09:21:01;12.67;;;7.73;;
14125;SDS011;7141;49.484;11.242;2022-11-28T09:23:28;13.83;;;8.43;;
14125;SDS011;7141;49.484;11.242;2022-11-28T09:25:54;12.53;;;8.00;;
14125;SDS011;7141;49.484;11.242;2022-11-28T09:28:21;14.53;;;8.03;;
14125;SDS011;7141;49.484;11.242;2022-11-28T09:30:47;11.40;;;8.10;;
14125;SDS011;7141;49.484;11.242;2022-11-28T09:33:13;13.10;;;7.63;;
14125;SDS011;7141;49.484;11.242;2022-11-28T09:35:39;14.83;;;8.60;;
14125;SDS011;7141;49.484;11.242;2022-11-28T09:38:05;14.03;;;8.17;;
14125;SDS011;7141;49.484;11.242;2022-11-28T09:40:38;14.90;;;8.60;;
14125;SDS011;7141;49.484;11.242;2022-11-28T09:43:13;13.50;;;7.23;;
14125;SDS011;7141;49.484;11.242;2022-11-28T09:45:39;11.90;;;7.57;;
14125;SDS011;7141;49.484;11.242;2022-11-28T09:48:26;10.60;;;7.00;;
14125;SDS011;7141;49.484;11.242;2022-11-28T09:50:56;12.00;;;7.53;;
14125;SDS011;7141;49.484;11.242;2022-11-28T09:53:23;11.40;;;7.73;;
14125;SDS011;7141;49.484;11.242;2022-11-28T09:55:53;11.63;;;7.67;;
14125;SDS011;7141;49.484;11.242;2022-11-28T09:58:25;10.97;;;7.53;;
14125;SDS011;7141;49.484;11.242;2022-11-28T10:05:59;12.40;;;6.87;;
14125;SDS011;7141;49.484;11.242;2022-11-28T10:08:30;14.43;;;8.17;;
14125;SDS011;7141;49.484;11.242;2022-11-28T10:11:04;14.17;;;9.60;;
14125;SDS011;7141;49.484;11.242;2022-11-28T10:13:40;11.30;;;8.23;;
14125;SDS011;7141;49.484;11.242;2022-11-28T10:18:42;9.83;;;6.97;;
14125;SDS011;7141;49.484;11.242;2022-11-28T10:21:15;12.47;;;7.63;;
14125;SDS011;7141;49.484;11.242;2022-11-28T10:23:43;11.50;;;7.47;;
14125;SDS011;7141;49.484;11.242;2022-11-28T10:26:23;10.67;;;7.27;;
14125;SDS011;7141;49.484;11.242;2022-11-28T10:28:52;9.20;;;6.63;;
14125;SDS011;7141;49.484;11.242;2022-11-28T10:31:32;10.80;;;7.33;;
14125;SDS011;7141;49.484;11.242;2022-11-28T10:34:01;9.13;;;6.20;;
14125;SDS011;7141;49.484;11.242;2022-11-28T10:36:32;12.90;;;7.43;;
14125;SDS011;7141;49.484;11.242;2022-11-28T10:39:00;11.97;;;6.40;;
14125;SDS011;7141;49.484;11.242;2022-11-28T10:41:30;10.90;;;7.23;;
14125;SDS011;7141;49.484;11.242;2022-11-28T10:43:59;12.30;;;7.03;;
14125;SDS011;7141;49.484;11.242;2022-11-28T10:54:18;10.43;;;6.67;;
14125;SDS011;7141;49.484;11.242;2022-11-28T11:01:48;10.10;;;7.00;;
14125;SDS011;7141;49.484;11.242;2022-11-28T11:04:19;8.90;;;6.93;;
14125;SDS011;7141;49.484;11.242;2022-11-28T11:06:48;10.63;;;7.33;;
14125;SDS011;7141;49.484;11.242;2022-11-28T11:09:18;10.70;;;7.17;;
14125;SDS011;7141;49.484;11.242;2022-11-28T11:11:49;14.93;;;7.37;;
14125;SDS011;7141;49.484;11.242;2022-11-28T11:14:16;11.00;;;7.17;;
14125;SDS011;7141;49.484;11.242;2022-11-28T11:16:54;11.10;;;7.30;;
14125;SDS011;7141;49.484;11.242;2022-11-28T11:19:31;10.23;;;7.10;;
14125;SDS011;7141;49.484;11.242;2022-11-28T11:22:03;11.60;;;6.73;;
14125;SDS011;7141;49.484;11.242;2022-11-28T11:24:29;13.20;;;9.27;;
14125;SDS011;7141;49.484;11.242;2022-11-28T11:27:03;14.53;;;9.73;;
14125;SDS011;7141;49.484;11.242;2022-11-28T11:29:38;15.83;;;8.93;;
14125;SDS011;7141;49.484;11.242;2022-11-28T11:32:05;13.53;;;8.20;;
14125;SDS011;7141;49.484;11.242;2022-11-28T11:34:35;13.87;;;8.37;;
14125;SDS011;7141;49.484;11.242;2022-11-28T11:39:50;11.47;;;7.30;;
14125;SDS011;7141;49.484;11.242;2022-11-28T11:42:27;12.37;;;8.57;;
14125;SDS011;7141;49.484;11.242;2022-11-28T11:44:54;11.33;;;7.80;;
14125;SDS011;7141;49.484;11.242;2022-11-28T11:47:38;12.20;;;7.87;;
14125;SDS011;7141;49.484;11.242;2022-11-28T11:50:06;10.60;;;8.43;;
14125;SDS011;7141;49.484;11.242;2022-11-28T11:52:32;13.10;;;7.87;;
14125;SDS011;7141;49.484;11.242;2022-11-28T11:55:03;11.30;;;8.40;;
14125;SDS011;7141;49.484;11.242;2022-11-28T12:05:04;12.40;;;9.10;;
14125;SDS011;7141;49.484;11.242;2022-11-28T12:07:52;13.67;;;8.83;;
14125;SDS011;7141;49.484;11.242;2022-11-28T12:10:20;11.57;;;8.50;;
14125;SDS011;7141;49.484;11.242;2022-11-28T12:12:47;13.37;;;8.40;;
14125;SDS011;7141;49.484;11.242;2022-11-28T12:15:18;11.20;;;8.23;;
14125;SDS011;7141;49.484;11.242;2022-11-28T12:17:52;11.97;;;9.53;;
14125;SDS011;7141;49.484;11.242;2022-11-28T12:30:33;14.70;;;9.43;;
14125;SDS011;7141;49.484;11.242;2022-11-28T12:35:40;12.33;;;9.20;;
14125;SDS011;7141;49.484;11.242;2022-11-28T12:38:11;13.90;;;9.93;;
14125;SDS011;7141;49.484;11.242;2022-11-28T12:43:24;13.67;;;9.10;;
14125;SDS011;7141;49.484;11.242;2022-11-28T12:53:40;12.37;;;9.00;;
14125;SDS011;7141;49.484;11.242;2022-11-28T12:56:30;15.63;;;9.17;;
14125;SDS011;7141;49.484;11.242;2022-11-28T13:07:18;14.97;;;9.50;;
14125;SDS011;7141;49.484;11.242;2022-11-28T13:12:19;12.33;;;8.93;;
14125;SDS011;7141;49.484;11.242;2022-11-28T13:14:50;13.87;;;9.17;;
14125;SDS011;7141;49.484;11.242;2022-11-28T13:20:05;15.27;;;9.83;;
14125;SDS011;7141;49.484;11.242;2022-11-28T13:22:39;14.97;;;9.67;;
14125;SDS011;7141;49.484;11.242;2022-11-28T13:30:16;15.57;;;9.93;;
14125;SDS011;7141;49.484;11.242;2022-11-28T13:35:29;15.00;;;10.63;;
14125;SDS011;7141;49.484;11.242;2022-11-28T13:38:02;15.20;;;10.17;;
14125;SDS011;7141;49.484;11.242;2022-11-28T13:45:35;16.37;;;10.80;;
14125;SDS011;7141;49.484;11.242;2022-11-28T13:53:27;15.63;;;10.23;;
14125;SDS011;7141;49.484;11.242;2022-11-28T13:58:27;15.20;;;10.20;;
14125;SDS011;7141;49.484;11.242;2022-11-28T14:01:02;16.67;;;10.43;;
14125;SDS011;7141;49.484;11.242;2022-11-28T14:03:29;18.30;;;12.17;;
14125;SDS011;7141;49.484;11.242;2022-11-28T14:05:56;16.03;;;11.67;;
14125;SDS011;7141;49.484;11.242;2022-11-28T14:19:00;18.03;;;10.50;;
14125;SDS011;7141;49.484;11.242;2022-11-28T14:21:38;16.57;;;10.70;;
14125;SDS011;7141;49.484;11.242;2022-11-28T14:26:38;16.77;;;10.80;;
14125;SDS011;7141;49.484;11.242;2022-11-28T14:29:16;14.13;;;10.13;;
14125;SDS011;7141;49.484;11.242;2022-11-28T14:31:44;16.90;;;11.20;;
14125;SDS011;7141;49.484;11.242;2022-11-28T14:37:33;15.77;;;10.63;;
14125;SDS011;7141;49.484;11.242;2022-11-28T14:39:53;15.30;;;10.30;;
14125;SDS011;7141;49.484;11.242;2022-11-28T14:42:40;15.03;;;9.37;;
14125;SDS011;7141;49.484;11.242;2022-11-28T14:48:06;14.97;;;10.10;;
14125;SDS011;7141;49.484;11.242;2022-11-28T14:53:35;15.83;;;10.23;;
14125;SDS011;7141;49.484;11.242;2022-11-28T14:56:07;17.33;;;10.10;;
14125;SDS011;7141;49.484;11.242;2022-11-28T14:58:33;14.57;;;9.90;;
14125;SDS011;7141;49.484;11.242;2022-11-28T15:01:00;16.40;;;10.63;;
14125;SDS011;7141;49.484;11.242;2022-11-28T15:03:33;14.37;;;9.60;;
14125;SDS011;7141;49.484;11.242;2022-11-28T15:06:02;18.93;;;11.90;;
14125;SDS011;7141;49.484;11.242;2022-11-28T15:16:19;19.43;;;11.27;;
14125;SDS011;7141;49.484;11.242;2022-11-28T15:18:47;18.47;;;11.50;;
14125;SDS011;7141;49.484;11.242;2022-11-28T15:21:14;18.77;;;11.43;;
14125;SDS011;7141;49.484;11.242;2022-11-28T15:23:41;21.63;;;11.10;;
14125;SDS011;7141;49.484;11.242;2022-11-28T15:29:08;15.90;;;10.57;;
14125;SDS011;7141;49.484;11.242;2022-11-28T15:31:34;17.97;;;10.90;;
14125;SDS011;7141;49.484;11.242;2022-11-28T15:34:00;19.93;;;11.83;;
14125;SDS011;7141;49.484;11.242;2022-11-28T15:36:26;15.63;;;11.57;;
14125;SDS011;7141;49.484;11.242;2022-11-28T15:38:53;20.67;;;11.47;;
14125;SDS011;7141;49.484;11.242;2022-11-28T15:41:20;18.80;;;11.67;;
14125;SDS011;7141;49.484;11.242;2022-11-28T15:43:47;21.17;;;14.17;;
14125;SDS011;7141;49.484;11.242;2022-11-28T15:46:22;24.23;;;13.73;;
14125;SDS011;7141;49.484;11.242;2022-11-28T15:48:50;22.27;;;12.77;;
14125;SDS011;7141;49.484;11.242;2022-11-28T15:51:22;23.47;;;13.47;;
14125;SDS011;7141;49.484;11.242;2022-11-28T15:53:48;21.80;;;11.47;;
14125;SDS011;7141;49.484;11.242;2022-11-28T15:56:14;24.37;;;14.73;;
14125;SDS011;7141;49.484;11.242;2022-11-28T15:58:41;24.27;;;15.83;;
14125;SDS011;7141;49.484;11.242;2022-11-28T16:06:15;20.33;;;13.43;;
14125;SDS011;7141;49.484;11.242;2022-11-28T16:08:57;21.27;;;12.93;;
14125;SDS011;7141;49.484;11.242;2022-11-28T16:11:25;21.67;;;14.53;;
14125;SDS011;7141;49.484;11.242;2022-11-28T16:13:52;23.77;;;13.83;;
14125;SDS011;7141;49.484;11.242;2022-11-28T16:16:20;20.37;;;12.93;;
14125;SDS011;7141;49.484;11.242;2022-11-28T16:18:50;19.10;;;12.57;;
14125;SDS011;7141;49.484;11.242;2022-11-28T16:21:18;29.43;;;19.20;;
14125;SDS011;7141;49.484;11.242;2022-11-28T16:23:44;21.40;;;12.93;;
14125;SDS011;7141;49.484;11.242;2022-11-28T16:26:22;24.13;;;14.17;;
14125;SDS011;7141;49.484;11.242;2022-11-28T16:28:59;21.53;;;13.33;;
14125;SDS011;7141;49.484;11.242;2022-11-28T16:31:26;21.53;;;14.33;;
14125;SDS011;7141;49.484;11.242;2022-11-28T16:33:53;20.90;;;13.43;;
14125;SDS011;7141;49.484;11.242;2022-11-28T16:36:20;21.07;;;13.50;;
14125;SDS011;7141;49.484;11.242;2022-11-28T16:38:48;18.17;;;13.50;;
14125;SDS011;7141;49.484;11.242;2022-11-28T16:41:24;19.83;;;12.60;;
14125;SDS011;7141;49.484;11.242;2022-11-28T16:43:55;18.43;;;12.77;;
14125;SDS011;7141;49.484;11.242;2022-11-28T16:46:31;23.03;;;13.77;;
14125;SDS011;7141;49.484;11.242;2022-11-28T16:48:58;22.50;;;14.37;;
14125;SDS011;7141;49.484;11.242;2022-11-28T16:53:51;25.20;;;14.13;;
14125;SDS011;7141;49.484;11.242;2022-11-28T16:58:57;21.43;;;14.57;;
14125;SDS011;7141;49.484;11.242;2022-11-28T17:01:25;25.10;;;15.73;;
14125;SDS011;7141;49.484;11.242;2022-11-28T17:03:52;22.13;;;14.37;;
14125;SDS011;7141;49.484;11.242;2022-11-28T17:06:31;22.93;;;14.90;;
14125;SDS011;7141;49.484;11.242;2022-11-28T17:09:04;21.57;;;15.67;;
14125;SDS011;7141;49.484;11.242;2022-11-28T17:11:34;30.47;;;17.97;;
14125;SDS011;7141;49.484;11.242;2022-11-28T17:14:01;25.17;;;16.23;;
14125;SDS011;7141;49.484;11.242;2022-11-28T17:16:27;23.03;;;16.43;;
14125;SDS011;7141;49.484;11.242;2022-11-28T17:18:54;18.13;;;13.27;;
14125;SDS011;7141;49.484;11.242;2022-11-28T17:26:41;23.47;;;15.07;;
14125;SDS011;7141;49.484;11.242;2022-11-28T17:29:09;20.70;;;14.20;;
14125;SDS011;7141;49.484;11.242;2022-11-28T17:31:35;21.60;;;14.77;;
14125;SDS011;7141;49.484;11.242;2022-11-28T17:34:01;21.53;;;15.07;;
14125;SDS011;7141;49.484;11.242;2022-11-28T17:36:27;19.60;;;13.60;;
14125;SDS011;7141;49.484;11.242;2022-11-28T17:38:53;25.37;;;16.50;;
14125;SDS011;7141;49.484;11.242;2022-11-28T17:41:19;38.87;;;22.70;;